Skip to main content

NOAA/GLERL Met Station at Chicago, IL

Previous 3 Hours (2 minute increments)
See also Previous 5 Days (top of hour)
Jump down to Data
Switch to [English][Metric]
Zoom: Click and drag, Pan: shift-click and drag, Unzoom: double-click, Unzoom All




See also 1-day windrose plot


NOAA/GLERL Met Station at Chicago, IL

Previous 3 Hours (2 minute increments)
See also Previous 5 Days (top of hour only)
Jump up to Graphs
Switch to [English][Metric]
                  Wind  Wind  Wind   Air   Dew   Rel
                   Spd   Gst   Dir  Temp    Pt   Hum
YYYY-MM-DD   CDT   kts   kts   deg     F     F     %
2021-10-22 19:50   4.9   5.4   324  53.1  33.6  47.3
2021-10-22 19:48   5.1   5.6   317  53.1  33.7  47.5
2021-10-22 19:46   6.0   7.0   312  53.1  33.7  47.5
2021-10-22 19:44   6.2   7.6   303  53.1  34.1  48.1
2021-10-22 19:42   6.0   7.0   322  53.1  34.4  48.8
2021-10-22 19:40   5.8   6.8   307  53.1  33.6  47.2
2021-10-22 19:38   7.0   8.2   308  53.2  33.8  47.2
2021-10-22 19:36   5.1   7.0   311  53.1  34.8  49.6
2021-10-22 19:34   5.1   7.0   309  53.2  34.1  47.8
2021-10-22 19:32   5.6   6.6   298  53.1  34.0  47.9
2021-10-22 19:30   6.0   7.0   306  53.1  33.5  47.1
2021-10-22 19:28   6.8   7.8   323  53.1  33.2  46.5
2021-10-22 19:26   7.0   8.2   322  53.2  34.7  49.0
2021-10-22 19:24   5.2   6.0   308  53.1  34.0  47.9
2021-10-22 19:22   6.6   8.6   316  53.1  33.8  47.6
2021-10-22 19:20   7.6   8.6   315  53.1  33.5  47.1
2021-10-22 19:18   7.2   8.4   313  53.1  33.6  47.2
2021-10-22 19:16   7.8   9.3   310  53.1  34.0  48.0
2021-10-22 19:14   8.0   8.9   309  53.1  34.4  48.8
2021-10-22 19:12   6.8   8.6   304  52.9  32.9  46.3
2021-10-22 19:10   7.2   9.3   314  52.9  33.6  47.6
2021-10-22 19:08   7.4   9.1   316  53.1  34.1  48.1
2021-10-22 19:06   6.4   8.0   311  53.1  33.8  47.6
2021-10-22 19:04   6.8   8.4   311  53.2  34.7  49.0
2021-10-22 19:02   5.8   8.2   321  53.1  34.3  48.5
2021-10-22 19:00   7.4   8.2   325  53.1  33.8  47.6
2021-10-22 18:58   6.0   7.8   317  53.1  34.8  49.5
2021-10-22 18:56   5.8   6.8   313  52.9  35.0  50.3
2021-10-22 18:54   5.4   6.6   343  52.9  36.8  54.0
2021-10-22 18:52   5.6   7.0   353  52.7  36.5  53.7
2021-10-22 18:50   6.0   8.4   349  52.7  35.8  52.2
2021-10-22 18:48   7.0   8.6   344  52.9  36.8  54.0
2021-10-22 18:46   5.4   6.4   331  52.7  36.4  53.6
2021-10-22 18:44   7.0   8.7   328  52.7  35.8  52.3
2021-10-22 18:42   6.0   6.8   329  52.7  35.8  52.3
2021-10-22 18:40   6.0   7.8   327  52.9  36.0  52.4
2021-10-22 18:38   6.4   7.2   323  52.9  36.4  53.2
2021-10-22 18:36   6.2   7.4   335  52.9  36.5  53.3
2021-10-22 18:34   6.2   7.6   336  52.7  35.8  52.2
2021-10-22 18:32   6.0   7.2   327  52.5  35.3  51.6
2021-10-22 18:30   4.5   5.8   338  52.5  35.7  52.4
2021-10-22 18:28   6.2   7.8   327  52.5  35.3  51.5
2021-10-22 18:26   6.4   7.4   336  52.7  36.5  53.7
2021-10-22 18:24   4.9   6.0   331  52.5  36.4  53.9
2021-10-22 18:22   5.6   7.4   346  52.5  35.5  51.9
2021-10-22 18:20   7.2   8.6   340  52.5  35.4  51.8
2021-10-22 18:18   7.2   8.7   351  52.5  37.1  55.4
2021-10-22 18:16   4.9   6.4   360  52.3  36.2  53.8
2021-10-22 18:14   6.0   6.8   360  52.3  36.8  55.0
2021-10-22 18:12   6.4   7.2     1  52.3  37.0  55.6
2021-10-22 18:10   5.6   7.6   359  52.2  36.3  54.4
2021-10-22 18:08   7.6   9.3   356  52.3  36.9  55.4
2021-10-22 18:06   5.8   7.4   346  52.3  36.9  55.4
2021-10-22 18:04   6.6   8.2     7  52.3  37.0  55.6
2021-10-22 18:02   6.4   8.4     6  52.3  37.3  56.2
2021-10-22 18:00   6.2   8.0   356  52.3  36.6  54.7
2021-10-22 17:58   6.2   7.4   352  52.5  36.5  54.1
2021-10-22 17:56   4.9   7.2   353  52.3  37.0  55.6
2021-10-22 17:54   5.4   6.6   356  52.3  36.1  53.5
2021-10-22 17:52   6.8   8.2   354  52.3  36.4  54.2
2021-10-22 17:50   7.6   9.1   359  52.5  37.2  55.6
2021-10-22 17:48   6.4   7.6     5  52.5  36.7  54.5
2021-10-22 17:46   6.6   7.8   344  52.5  36.1  53.3
2021-10-22 17:44   7.0   8.6   352  52.5  36.2  53.4
2021-10-22 17:42   6.4   8.6   357  52.5  36.7  54.6
2021-10-22 17:40   4.9   5.8   345  52.3  35.9  53.1
2021-10-22 17:38   6.4   7.4   353  52.3  35.8  52.9
2021-10-22 17:36   6.2   8.2   351  52.3  36.1  53.6
2021-10-22 17:34   3.5   4.9     9  52.3  35.7  52.8
2021-10-22 17:32   4.5   5.1   359  52.3  35.3  51.9
2021-10-22 17:30   6.4   8.2   345  52.3  35.3  51.9
2021-10-22 17:28   4.9   6.8   354  52.3  36.2  53.8
2021-10-22 17:26   5.6   7.0   333  52.3  35.8  53.0
2021-10-22 17:24   6.6   7.6   360  52.3  36.1  53.6
2021-10-22 17:22   5.1   7.2    11  52.3  37.3  56.2
2021-10-22 17:20   5.2   7.6     4  52.3  37.1  55.7
2021-10-22 17:18   4.7   6.2   360  52.2  36.3  54.4
2021-10-22 17:16   5.4   7.8     5  52.2  35.8  53.3
2021-10-22 17:14   5.8   7.0    11  52.3  36.9  55.4
2021-10-22 17:12   4.3   5.2     1  52.2  36.0  53.8
2021-10-22 17:10   6.0   7.0   350  52.3  36.0  53.4
2021-10-22 17:08   5.2   6.8   349  52.3  36.6  54.7
2021-10-22 17:06   4.1   5.6   333  52.3  36.1  53.5
2021-10-22 17:04   4.1   5.4   358  52.3  35.3  51.9
2021-10-22 17:02   4.1   5.4   338  52.5  37.6  56.4
2021-10-22 17:00   5.6   6.6   359  52.3  36.0  53.4
2021-10-22 16:58   5.6   6.2   347  52.2  36.8  55.4
2021-10-22 16:56   5.4   6.8   345  52.3  36.9  55.4
2021-10-22 16:54   5.2   6.0   342  52.2  37.1  56.1
2021-10-22 16:52   5.8   7.0     1  52.2  37.1  56.1
2021-10-22 16:50   6.2   6.8   358  52.3  37.6  56.9